createdAt,value
2023-01-25T00:02:44.543Z,1.80
2023-01-25T00:05:32.381Z,1.81
2023-01-25T00:08:21.284Z,1.83
2023-01-25T00:11:10.627Z,1.83
2023-01-25T00:13:58.776Z,1.82
2023-01-25T00:16:47.208Z,1.84
2023-01-25T00:19:35.021Z,1.80
2023-01-25T00:22:22.978Z,1.78
2023-01-25T00:25:11.434Z,1.76
2023-01-25T00:28:00.590Z,1.80
2023-01-25T00:30:48.695Z,1.80
2023-01-25T00:33:52.683Z,1.77
2023-01-25T00:36:42.936Z,1.77
2023-01-25T00:39:30.870Z,1.77
2023-01-25T00:42:20.757Z,1.70
2023-01-25T00:45:13.257Z,1.70
2023-01-25T00:48:01.223Z,1.70
2023-01-25T00:50:49.183Z,1.67
2023-01-25T00:53:37.254Z,1.66
2023-01-25T00:56:25.241Z,1.64
2023-01-25T00:59:14.323Z,1.66
2023-01-25T01:02:04.497Z,1.58
2023-01-25T01:04:52.502Z,1.57
2023-01-25T01:07:40.471Z,1.52
2023-01-25T01:10:28.319Z,1.56
2023-01-25T01:13:16.140Z,1.60
2023-01-25T01:16:06.227Z,1.62
2023-01-25T01:18:55.755Z,1.53
2023-01-25T01:21:43.825Z,1.55
2023-01-25T01:24:32.086Z,1.55
2023-01-25T01:27:19.910Z,1.51
2023-01-25T01:30:09.267Z,1.46
2023-01-25T01:32:57.337Z,1.49
2023-01-25T01:35:46.769Z,1.42
2023-01-25T01:38:34.871Z,1.40
2023-01-25T01:41:23.036Z,1.39
2023-01-25T01:44:18.016Z,1.46
2023-01-25T01:47:06.355Z,1.46
2023-01-25T01:49:58.580Z,1.48
2023-01-25T01:52:47.812Z,1.49
2023-01-25T01:55:36.906Z,1.52
2023-01-25T01:58:25.292Z,1.53
2023-01-25T02:01:13.924Z,1.53
2023-01-25T02:04:02.575Z,1.55
2023-01-25T02:06:54.025Z,1.53
2023-01-25T02:09:44.808Z,1.55
2023-01-25T02:12:33.624Z,1.57
2023-01-25T02:15:21.433Z,1.54
2023-01-25T02:18:10.780Z,1.53
2023-01-25T02:21:00.766Z,1.54
2023-01-25T02:23:56.165Z,1.56
2023-01-25T02:26:45.808Z,1.56
2023-01-25T02:29:34.125Z,1.54
2023-01-25T02:32:21.966Z,1.53
2023-01-25T02:35:19.324Z,1.52
2023-01-25T02:38:08.007Z,1.52
2023-01-25T02:41:00.286Z,1.50
2023-01-25T02:43:49.753Z,1.49
2023-01-25T02:46:39.235Z,1.46
2023-01-25T02:49:28.580Z,1.40
2023-01-25T02:52:16.656Z,1.38
2023-01-25T02:55:04.619Z,1.34
2023-01-25T02:57:52.390Z,1.37
2023-01-25T03:00:41.411Z,1.39
2023-01-25T03:03:29.047Z,1.41
2023-01-25T03:06:16.880Z,1.37
2023-01-25T03:09:06.329Z,1.38
2023-01-25T03:11:54.537Z,1.27
2023-01-25T03:14:44.523Z,1.32
2023-01-25T03:17:33.860Z,1.39
2023-01-25T03:20:21.893Z,1.33
2023-01-25T03:23:09.763Z,1.24
2023-01-25T03:26:05.124Z,1.31
2023-01-25T03:28:52.838Z,1.29
2023-01-25T03:31:40.747Z,1.33
2023-01-25T03:34:29.785Z,1.20
2023-01-25T03:37:17.854Z,1.21
2023-01-25T03:40:06.677Z,1.23
2023-01-25T03:42:54.576Z,1.23
2023-01-25T03:45:42.416Z,1.25
2023-01-25T03:48:31.659Z,1.29
2023-01-25T03:51:20.624Z,1.31
2023-01-25T03:54:10.119Z,1.32
2023-01-25T03:56:58.264Z,1.32
2023-01-25T03:59:46.238Z,1.31
2023-01-25T04:02:34.199Z,1.32
2023-01-25T04:05:22.264Z,1.30
2023-01-25T04:08:11.714Z,1.28
2023-01-25T04:11:04.319Z,1.30
2023-01-25T04:13:51.941Z,1.29
2023-01-25T04:16:40.019Z,1.30
2023-01-25T04:19:27.684Z,1.29
2023-01-25T04:22:16.337Z,1.27
2023-01-25T04:25:06.282Z,1.23
2023-01-25T04:27:53.944Z,1.26
2023-01-25T04:30:41.708Z,1.21
2023-01-25T04:33:30.354Z,1.24
2023-01-25T04:36:18.394Z,1.12
2023-01-25T04:39:06.546Z,1.04
2023-01-25T04:41:55.750Z,1.03
2023-01-25T04:44:43.560Z,1.06
2023-01-25T04:47:31.525Z,1.09
2023-01-25T04:50:19.922Z,1.14
2023-01-25T04:53:08.717Z,1.17
2023-01-25T04:55:56.363Z,1.17
2023-01-25T04:58:45.588Z,1.16
2023-01-25T05:01:33.424Z,1.09
2023-01-25T05:04:21.464Z,1.07
2023-01-25T05:07:09.521Z,1.06
2023-01-25T05:09:57.409Z,0.98
2023-01-25T05:12:45.725Z,0.95
2023-01-25T05:15:34.736Z,0.94
2023-01-25T05:18:22.557Z,1.00
2023-01-25T05:21:33.763Z,1.05
2023-01-25T05:24:24.521Z,1.05
2023-01-25T05:27:13.246Z,1.07
2023-01-25T05:30:01.036Z,1.10
2023-01-25T05:32:54.387Z,1.10
2023-01-25T05:35:43.411Z,1.09
2023-01-25T05:38:31.612Z,1.09
2023-01-25T05:41:19.554Z,1.08
2023-01-25T05:44:07.143Z,1.09
2023-01-25T05:46:57.766Z,1.11
2023-01-25T05:49:47.559Z,1.09
2023-01-25T05:52:35.595Z,1.07
2023-01-25T05:55:23.647Z,1.08
2023-01-25T05:58:11.261Z,1.03
2023-01-25T06:01:02.559Z,0.99
2023-01-25T06:03:50.914Z,1.04
2023-01-25T06:06:40.493Z,1.06
2023-01-25T06:09:28.716Z,1.07
2023-01-25T06:12:16.849Z,1.08
2023-01-25T06:15:04.640Z,1.07
2023-01-25T06:17:56.410Z,1.04
2023-01-25T06:20:44.336Z,1.05
2023-01-25T06:23:33.829Z,1.02
2023-01-25T06:26:21.470Z,1.06
2023-01-25T06:29:09.552Z,1.04
2023-01-25T06:31:58.226Z,0.96
2023-01-25T06:34:46.488Z,0.96
2023-01-25T06:37:34.099Z,0.79
2023-01-25T06:40:23.856Z,0.77
2023-01-25T06:43:12.980Z,0.72
2023-01-25T06:46:01.979Z,0.74
2023-01-25T06:48:50.018Z,0.71
2023-01-25T06:51:37.726Z,0.67
2023-01-25T06:54:25.605Z,0.66
2023-01-25T06:57:15.082Z,0.74
2023-01-25T07:00:02.981Z,0.74
2023-01-25T07:02:50.650Z,0.78
2023-01-25T07:05:38.357Z,0.85
2023-01-25T07:08:26.635Z,0.90
2023-01-25T07:11:15.432Z,0.91
2023-01-25T07:14:05.553Z,0.95
2023-01-25T07:16:53.274Z,0.96
2023-01-25T07:19:41.200Z,0.95
2023-01-25T07:22:33.393Z,0.92
2023-01-25T07:25:21.200Z,0.91
2023-01-25T07:28:09.326Z,0.89
2023-01-25T07:31:04.795Z,0.83
2023-01-25T07:33:53.698Z,0.86
2023-01-25T07:36:43.597Z,0.89
2023-01-25T07:39:31.303Z,0.73
2023-01-25T07:42:19.368Z,0.75
2023-01-25T07:45:08.662Z,0.80
2023-01-25T07:47:59.114Z,0.78
2023-01-25T07:50:49.627Z,0.77
2023-01-25T07:53:37.432Z,0.75
2023-01-25T07:56:52.102Z,0.84
2023-01-25T07:59:40.239Z,0.91
2023-01-25T08:02:28.174Z,0.91
2023-01-25T08:05:18.685Z,0.93
2023-01-25T08:08:06.527Z,0.96
2023-01-25T08:10:54.371Z,0.98
2023-01-25T08:13:46.265Z,0.95
2023-01-25T08:16:34.224Z,0.85
2023-01-25T08:19:22.265Z,0.89
2023-01-25T08:22:13.116Z,0.93
2023-01-25T08:25:01.655Z,0.92
2023-01-25T08:27:49.616Z,0.93
2023-01-25T08:30:41.246Z,0.98
2023-01-25T08:33:33.925Z,0.98
2023-01-25T08:36:24.345Z,1.01
2023-01-25T08:39:14.518Z,1.03
2023-01-25T08:42:02.154Z,1.03
2023-01-25T08:44:50.087Z,1.04
2023-01-25T08:47:37.982Z,1.01
2023-01-25T08:50:26.105Z,1.02
2023-01-25T08:53:14.307Z,0.98
2023-01-25T08:56:08.509Z,0.99
2023-01-25T08:58:56.398Z,0.99
2023-01-25T09:01:44.399Z,1.02
2023-01-25T09:04:32.597Z,0.99
2023-01-25T09:07:20.158Z,1.00
2023-01-25T09:10:09.272Z,1.02
2023-01-25T09:12:58.918Z,0.89
2023-01-25T09:15:47.037Z,0.73
2023-01-25T09:18:36.577Z,0.70
2023-01-25T09:21:24.766Z,0.67
2023-01-25T09:24:12.647Z,0.76
2023-01-25T09:27:00.434Z,0.79
2023-01-25T09:30:01.417Z,0.76
2023-01-25T09:32:51.944Z,0.78
2023-01-25T09:35:39.711Z,0.77
2023-01-25T09:38:27.868Z,0.81
2023-01-25T09:42:06.812Z,0.78
2023-01-25T09:45:18.898Z,0.80
2023-01-25T09:48:15.081Z,0.73
2023-01-25T09:51:19.692Z,0.70
2023-01-25T09:54:10.952Z,0.70
2023-01-25T09:56:59.850Z,0.85
2023-01-25T09:59:50.248Z,0.82
2023-01-25T10:02:47.410Z,0.93
2023-01-25T10:05:42.283Z,0.96
2023-01-25T10:08:37.135Z,1.03
2023-01-25T10:11:29.035Z,1.08
2023-01-25T10:14:19.140Z,1.11
2023-01-25T10:17:14.146Z,1.16
2023-01-25T10:20:17.220Z,1.18
2023-01-25T10:23:20.589Z,1.16
2023-01-25T10:26:17.625Z,1.23
2023-01-25T10:29:12.450Z,1.25
2023-01-25T10:32:14.166Z,1.31
2023-01-25T10:35:33.981Z,1.33
2023-01-25T10:38:31.137Z,1.35
2023-01-25T10:41:24.932Z,1.34
2023-01-25T10:44:26.114Z,1.29
2023-01-25T10:47:20.047Z,1.32
2023-01-25T10:50:08.830Z,1.31
2023-01-25T10:53:00.872Z,1.33
2023-01-25T10:56:02.257Z,1.25
2023-01-25T10:58:54.322Z,1.13
2023-01-25T11:01:42.512Z,1.10
2023-01-25T11:04:33.514Z,1.09
2023-01-25T11:07:30.066Z,1.19
2023-01-25T11:10:32.580Z,1.21
2023-01-25T11:13:26.494Z,1.23
2023-01-25T11:16:42.920Z,1.20
2023-01-25T11:19:35.448Z,1.13
2023-01-25T11:22:25.899Z,1.12
2023-01-25T11:25:31.402Z,1.32
2023-01-25T11:28:21.696Z,1.37
2023-01-25T11:31:14.037Z,1.30
2023-01-25T11:34:01.937Z,1.43
2023-01-25T11:37:20.031Z,1.44
2023-01-25T11:40:17.047Z,1.48
2023-01-25T11:43:19.159Z,1.28
2023-01-25T11:46:22.487Z,1.09
2023-01-25T11:49:23.210Z,1.08
2023-01-25T11:52:26.197Z,1.17
2023-01-25T11:55:27.058Z,1.32
2023-01-25T11:58:36.798Z,1.33
2023-01-25T12:01:35.130Z,1.31
2023-01-25T12:04:42.418Z,1.51
2023-01-25T12:07:43.740Z,1.58
2023-01-25T12:10:38.368Z,1.65
2023-01-25T12:13:35.891Z,1.64
2023-01-25T12:16:39.411Z,1.70
2023-01-25T12:19:40.524Z,1.73
2023-01-25T12:22:52.984Z,1.79
2023-01-25T12:25:55.733Z,1.74
2023-01-25T12:28:51.498Z,1.81
2023-01-25T12:31:47.711Z,1.85
2023-01-25T12:34:38.885Z,1.89
2023-01-25T12:37:33.192Z,1.91
2023-01-25T12:40:26.972Z,1.79
2023-01-25T12:43:20.334Z,1.61
2023-01-25T12:46:12.469Z,1.39
2023-01-25T12:49:07.472Z,1.47
2023-01-25T12:51:57.253Z,1.58
2023-01-25T12:54:48.791Z,1.54
2023-01-25T12:57:45.077Z,1.41
2023-01-25T13:00:45.835Z,1.50
2023-01-25T13:03:41.718Z,1.59
2023-01-25T13:06:38.314Z,1.71
2023-01-25T13:09:35.664Z,1.63
2023-01-25T13:12:24.643Z,1.52
2023-01-25T13:15:37.263Z,1.52
2023-01-25T13:18:42.912Z,1.64
2023-01-25T13:21:46.100Z,1.55
2023-01-25T13:24:35.317Z,1.38
2023-01-25T13:27:28.233Z,1.54
2023-01-25T13:30:32.457Z,1.56
2023-01-25T13:33:35.288Z,1.53
2023-01-25T13:36:47.440Z,1.56
2023-01-25T13:39:45.079Z,1.51
2023-01-25T13:42:34.577Z,1.53
2023-01-25T13:45:23.841Z,1.68
2023-01-25T13:48:19.680Z,1.79
2023-01-25T13:51:14.325Z,1.57
2023-01-25T13:54:03.736Z,1.55
2023-01-25T13:57:05.589Z,1.66
2023-01-25T14:00:12.166Z,1.47
2023-01-25T14:03:00.368Z,1.34
2023-01-25T14:05:53.995Z,1.37
2023-01-25T14:08:44.085Z,1.43
2023-01-25T14:11:35.407Z,1.34
2023-01-25T14:14:31.043Z,1.29
2023-01-25T14:17:22.059Z,1.48
2023-01-25T14:20:22.745Z,1.32
2023-01-25T14:23:25.387Z,1.31
2023-01-25T14:26:23.153Z,1.18
2023-01-25T14:29:35.945Z,0.93
2023-01-25T14:32:26.762Z,1.29
2023-01-25T14:35:54.689Z,1.27
2023-01-25T14:38:44.671Z,1.18
2023-01-25T14:41:35.956Z,0.91
2023-01-25T14:44:27.724Z,0.77
2023-01-25T14:47:23.822Z,0.85
2023-01-25T14:50:32.340Z,1.08
2023-01-25T14:53:24.172Z,0.99
2023-01-25T14:56:37.909Z,1.04
2023-01-25T14:59:34.860Z,1.05
2023-01-25T15:02:29.040Z,1.04
2023-01-25T15:05:23.951Z,1.18
2023-01-25T15:08:28.950Z,0.98
2023-01-25T15:11:38.786Z,1.03
2023-01-25T15:14:28.550Z,0.98
2023-01-25T15:17:38.110Z,1.04
2023-01-25T15:20:31.740Z,1.23
2023-01-25T15:23:24.813Z,1.04
2023-01-25T15:26:18.475Z,0.92
2023-01-25T15:29:14.697Z,0.75
2023-01-25T15:32:03.816Z,0.80
2023-01-25T15:34:52.042Z,0.91
2023-01-25T15:37:39.893Z,1.01
2023-01-25T15:40:27.909Z,1.09
2023-01-25T15:43:17.232Z,1.17
2023-01-25T15:46:06.817Z,1.24
2023-01-25T15:48:56.136Z,1.28
2023-01-25T15:51:43.821Z,1.29
2023-01-25T15:54:31.778Z,1.30
2023-01-25T15:57:32.983Z,1.30
2023-01-25T16:00:23.112Z,1.22
2023-01-25T16:03:11.066Z,1.24
2023-01-25T16:06:02.977Z,1.23
2023-01-25T16:08:50.935Z,1.02
2023-01-25T16:11:39.014Z,1.06
2023-01-25T16:14:30.196Z,1.02
2023-01-25T16:17:19.993Z,0.92
2023-01-25T16:20:09.218Z,0.84
2023-01-25T16:22:58.689Z,0.90
2023-01-25T16:25:48.786Z,0.90
2023-01-25T16:28:37.148Z,0.88
2023-01-25T16:31:33.002Z,0.89
2023-01-25T16:34:22.151Z,0.94
2023-01-25T16:37:15.445Z,0.95
2023-01-25T16:40:05.123Z,1.02
2023-01-25T16:42:53.750Z,1.05
2023-01-25T16:45:41.830Z,1.05
2023-01-25T16:48:29.761Z,0.95
2023-01-25T16:51:19.218Z,0.96
2023-01-25T16:54:07.051Z,1.00
2023-01-25T16:56:56.762Z,1.01
2023-01-25T16:59:44.693Z,0.99
2023-01-25T17:02:32.777Z,1.01
2023-01-25T17:05:20.964Z,1.01
2023-01-25T17:08:08.923Z,0.99
2023-01-25T17:10:57.493Z,0.98
2023-01-25T17:13:50.289Z,1.00
2023-01-25T17:16:38.511Z,0.96
2023-01-25T17:19:26.169Z,0.98
2023-01-25T17:22:14.262Z,0.97
2023-01-25T17:25:02.051Z,0.96
2023-01-25T17:27:50.322Z,0.85
2023-01-25T17:30:41.785Z,0.81
2023-01-25T17:33:30.343Z,0.86
2023-01-25T17:36:18.342Z,0.72
2023-01-25T17:39:06.465Z,0.73
2023-01-25T17:41:54.571Z,0.78
2023-01-25T17:44:43.055Z,0.81
2023-01-25T17:47:35.393Z,0.78
2023-01-25T17:50:23.246Z,0.81
2023-01-25T17:53:12.501Z,0.81
2023-01-25T17:56:04.262Z,0.72
2023-01-25T17:58:52.509Z,0.66
2023-01-25T18:01:42.829Z,0.51
2023-01-25T18:04:32.144Z,0.55
2023-01-25T18:07:20.152Z,0.63
2023-01-25T18:10:12.445Z,0.72
2023-01-25T18:13:04.893Z,0.85
2023-01-25T18:15:56.325Z,0.90
2023-01-25T18:18:46.007Z,0.81
2023-01-25T18:21:35.464Z,0.85
2023-01-25T18:24:27.382Z,0.84
2023-01-25T18:27:21.030Z,0.81
2023-01-25T18:30:34.723Z,0.76
2023-01-25T18:33:23.175Z,0.77
2023-01-25T18:36:12.205Z,0.70
2023-01-25T18:39:01.919Z,0.66
2023-01-25T18:41:54.309Z,0.58
2023-01-25T18:44:45.751Z,0.56
2023-01-25T18:47:34.085Z,0.61
2023-01-25T18:50:22.097Z,0.63
2023-01-25T18:53:10.485Z,0.68
2023-01-25T18:56:07.056Z,0.64
2023-01-25T18:58:58.287Z,0.64
2023-01-25T19:01:45.947Z,0.67
2023-01-25T19:04:33.978Z,0.65
2023-01-25T19:07:21.983Z,0.67
2023-01-25T19:10:11.236Z,0.69
2023-01-25T19:13:00.461Z,0.69
2023-01-25T19:15:48.098Z,0.70
2023-01-25T19:18:37.760Z,0.63
2023-01-25T19:21:27.791Z,0.67
2023-01-25T19:24:19.546Z,0.69
2023-01-25T19:27:07.955Z,0.69
2023-01-25T19:29:57.018Z,0.71
2023-01-25T19:32:44.670Z,0.70
2023-01-25T19:35:32.578Z,0.62
2023-01-25T19:38:20.597Z,0.55
2023-01-25T19:41:10.353Z,0.62
2023-01-25T19:43:59.739Z,0.64
2023-01-25T19:46:49.336Z,0.69
2023-01-25T19:49:37.125Z,0.69
2023-01-25T19:52:25.099Z,0.70
2023-01-25T19:55:13.230Z,0.76
2023-01-25T19:58:00.895Z,0.77
2023-01-25T20:00:49.039Z,0.76
2023-01-25T20:03:39.282Z,0.75
2023-01-25T20:06:28.235Z,0.77
2023-01-25T20:09:18.389Z,0.77
2023-01-25T20:12:07.944Z,0.77
2023-01-25T20:14:55.519Z,0.76
2023-01-25T20:17:44.231Z,0.77
2023-01-25T20:20:33.592Z,0.76
2023-01-25T20:23:21.787Z,0.75
2023-01-25T20:26:13.564Z,0.75
2023-01-25T20:29:02.098Z,0.73
2023-01-25T20:31:50.256Z,0.73
2023-01-25T20:34:38.055Z,0.71
2023-01-25T20:37:27.212Z,0.70
2023-01-25T20:40:15.353Z,0.66
2023-01-25T20:43:03.009Z,0.66
2023-01-25T20:45:54.110Z,0.66
2023-01-25T20:48:41.842Z,0.66
2023-01-25T20:51:30.262Z,0.66
2023-01-25T20:54:21.183Z,0.61
2023-01-25T20:57:08.929Z,0.65
2023-01-25T20:59:56.663Z,0.63
2023-01-25T21:02:44.721Z,0.66
2023-01-25T21:05:32.919Z,0.66
2023-01-25T21:08:21.516Z,0.67
2023-01-25T21:11:11.486Z,0.66
2023-01-25T21:14:00.168Z,0.67
2023-01-25T21:16:47.953Z,0.67
2023-01-25T21:19:35.911Z,0.68
2023-01-25T21:22:23.718Z,0.67
2023-01-25T21:25:12.636Z,0.65
2023-01-25T21:28:01.637Z,0.65
2023-01-25T21:30:49.792Z,0.57
2023-01-25T21:33:37.923Z,0.57
2023-01-25T21:36:26.837Z,0.58
2023-01-25T21:39:14.859Z,0.62
2023-01-25T21:42:02.938Z,0.61
2023-01-25T21:45:09.735Z,0.61
2023-01-25T21:48:00.411Z,0.61
2023-01-25T21:51:05.799Z,0.63
2023-01-25T21:53:53.717Z,0.64
2023-01-25T21:56:41.778Z,0.62
2023-01-25T21:59:30.247Z,0.58
2023-01-25T22:02:19.355Z,0.52
2023-01-25T22:05:07.535Z,0.43
2023-01-25T22:08:00.137Z,0.39
2023-01-25T22:10:48.133Z,0.45
2023-01-25T22:13:36.571Z,0.48
2023-01-25T22:16:25.317Z,0.49
2023-01-25T22:19:14.554Z,0.51
2023-01-25T22:22:02.446Z,0.48
2023-01-25T22:24:50.537Z,0.48
2023-01-25T22:27:46.626Z,0.44
2023-01-25T22:30:34.360Z,0.44
2023-01-25T22:33:22.503Z,0.44
2023-01-25T22:36:13.667Z,0.46
2023-01-25T22:39:01.649Z,0.46
2023-01-25T22:41:49.566Z,0.46
2023-01-25T22:44:37.824Z,0.47
2023-01-25T22:47:25.441Z,0.50
2023-01-25T22:50:13.693Z,0.50
2023-01-25T22:53:02.819Z,0.50
2023-01-25T22:55:50.698Z,0.50
2023-01-25T22:58:40.256Z,0.53
2023-01-25T23:01:30.390Z,0.55
2023-01-25T23:04:18.475Z,0.55
2023-01-25T23:07:12.107Z,0.56
2023-01-25T23:10:01.257Z,0.57
2023-01-25T23:12:48.816Z,0.56
2023-01-25T23:15:36.864Z,0.55
2023-01-25T23:18:42.117Z,0.54
2023-01-25T23:21:30.836Z,0.52
2023-01-25T23:24:18.899Z,0.52
2023-01-25T23:27:08.202Z,0.52
2023-01-25T23:29:56.229Z,0.51
2023-01-25T23:32:49.188Z,0.50
2023-01-25T23:35:37.053Z,0.49
2023-01-25T23:38:25.138Z,0.49
2023-01-25T23:41:13.268Z,0.48
2023-01-25T23:44:02.698Z,0.48
2023-01-25T23:46:50.359Z,0.48
2023-01-25T23:49:38.400Z,0.47
2023-01-25T23:52:26.347Z,0.46
2023-01-25T23:55:13.949Z,0.47
2023-01-25T23:58:03.835Z,0.47
